Time;durP1;ratioP1;P1;durP2;ratioP2;P2;SDS_P1;SDS_P2;PMS_P1;PMS_P2;Temp;Humidity;BMP_temperature;BMP_pressure;BME280_temperature;BME280_humidity;BME280_pressure;Samples;Min_cycle;Max_cycle;Signal;HPM_P1;HPM_P2
2023/09/09 00:01:26;;;;;;;6.38;4.63;;;21.40;66.70;;;;;;5041961;28;20021;-67
2023/09/09 00:03:51;;;;;;;9.57;4.50;;;21.30;66.80;;;;;;5026873;28;20024;-67
2023/09/09 00:06:17;;;;;;;11.80;5.15;;;21.20;66.90;;;;;;5042948;28;20037;-67
2023/09/09 00:08:43;;;;;;;6.85;4.53;;;21.20;67.70;;;;;;5043994;28;20041;-67
2023/09/09 00:11:09;;;;;;;7.43;4.60;;;21.20;68.10;;;;;;5038765;28;20032;-67
2023/09/09 00:13:35;;;;;;;7.57;5.20;;;21.20;68.50;;;;;;5033580;28;20026;-67
2023/09/09 00:16:01;;;;;;;10.38;4.80;;;21.10;69.20;;;;;;5033602;28;20025;-67
2023/09/09 00:18:26;;;;;;;9.95;5.30;;;21.00;69.50;;;;;;5033269;28;20083;-67
2023/09/09 00:20:52;;;;;;;5.95;4.65;;;21.00;70.10;;;;;;5033261;28;20036;-67
2023/09/09 00:23:18;;;;;;;8.07;5.68;;;21.00;70.10;;;;;;5033578;28;20506;-67
2023/09/09 00:25:43;;;;;;;7.75;4.88;;;20.90;70.70;;;;;;5032932;28;20030;-67
2023/09/09 00:28:13;;;;;;;8.60;5.25;;;20.80;70.80;;;;;;5033461;28;20077;-67
2023/09/09 00:30:39;;;;;;;10.82;6.43;;;20.80;70.90;;;;;;5032836;28;20038;-67
2023/09/09 00:33:07;;;;;;;9.00;4.95;;;20.70;71.50;;;;;;5033279;28;20021;-67
2023/09/09 00:35:34;;;;;;;8.18;5.50;;;20.70;71.50;;;;;;5033077;28;20108;-67
2023/09/09 00:38:00;;;;;;;7.40;5.03;;;20.70;72.40;;;;;;5032807;28;20445;-67
2023/09/09 00:40:26;;;;;;;9.75;5.32;;;20.70;72.40;;;;;;5032526;28;20100;-67
2023/09/09 00:42:52;;;;;;;9.30;5.32;;;20.60;72.60;;;;;;5032479;28;20113;-65
2023/09/09 00:45:17;;;;;;;7.10;5.18;;;20.60;73.00;;;;;;5034415;28;20018;-66
2023/09/09 00:47:45;;;;;;;13.60;5.35;;;20.50;73.40;;;;;;5032801;28;20032;-66
2023/09/09 00:50:13;;;;;;;10.52;5.03;;;20.50;73.30;;;;;;5033167;28;20104;-66
2023/09/09 00:52:40;;;;;;;11.48;6.07;;;20.50;73.20;;;;;;5032585;28;20152;-66
2023/09/09 00:55:07;;;;;;;10.60;6.00;;;20.40;73.60;;;;;;5035331;28;20026;-66
2023/09/09 00:57:33;;;;;;;10.77;5.88;;;20.40;74.10;;;;;;5032883;28;20068;-66
2023/09/09 01:00:01;;;;;;;8.50;5.57;;;20.30;74.10;;;;;;5033899;28;20470;-66
2023/09/09 01:02:26;;;;;;;9.70;5.55;;;20.30;74.70;;;;;;5032790;28;20022;-66
2023/09/09 01:04:52;;;;;;;9.25;5.75;;;20.20;75.00;;;;;;5032074;28;20036;-66
2023/09/09 01:07:17;;;;;;;9.68;5.57;;;20.20;75.60;;;;;;5032259;28;20474;-66
2023/09/09 01:09:43;;;;;;;10.55;5.65;;;20.20;75.60;;;;;;5032340;28;20068;-66
2023/09/09 01:12:11;;;;;;;10.57;5.68;;;20.10;75.70;;;;;;5032606;28;20066;-66
2023/09/09 01:14:40;;;;;;;9.55;5.75;;;20.20;76.10;;;;;;5032581;28;20499;-66
2023/09/09 01:17:06;;;;;;;12.23;5.93;;;20.20;76.10;;;;;;5032526;28;20547;-66
2023/09/09 01:19:32;;;;;;;11.13;5.75;;;20.10;75.90;;;;;;5032826;28;20369;-66
2023/09/09 01:22:03;;;;;;;9.77;5.68;;;20.10;76.30;;;;;;5032083;28;20026;-66
2023/09/09 01:24:29;;;;;;;11.68;6.07;;;20.10;76.50;;;;;;5032561;28;20025;-66
2023/09/09 01:26:55;;;;;;;9.73;5.95;;;20.10;76.50;;;;;;5031970;28;20069;-66
2023/09/09 01:29:21;;;;;;;11.73;6.20;;;20.10;76.90;;;;;;5032353;28;20111;-66
2023/09/09 01:31:47;;;;;;;10.55;5.72;;;20.10;77.00;;;;;;5034395;28;20455;-66
2023/09/09 01:34:12;;;;;;;9.23;6.07;;;20.10;77.00;;;;;;5032154;28;20034;-66
2023/09/09 01:36:38;;;;;;;8.52;6.45;;;20.00;77.30;;;;;;5032305;28;20026;-66
2023/09/09 01:39:04;;;;;;;14.90;6.53;;;20.00;77.50;;;;;;5031922;28;20057;-66
2023/09/09 01:41:29;;;;;;;13.65;6.18;;;20.00;77.40;;;;;;5032371;28;20051;-66
2023/09/09 01:43:55;;;;;;;11.98;6.20;;;20.00;77.90;;;;;;5031873;28;20481;-66
2023/09/09 01:46:21;;;;;;;9.18;6.55;;;20.00;77.40;;;;;;5032560;28;20036;-66
2023/09/09 01:48:47;;;;;;;8.30;6.10;;;20.00;78.20;;;;;;5031927;28;20033;-66
2023/09/09 01:51:12;;;;;;;9.85;6.60;;;20.00;78.40;;;;;;5032297;28;20057;-66
2023/09/09 01:53:38;;;;;;;11.63;6.45;;;19.90;78.80;;;;;;5035616;28;20128;-66
2023/09/09 01:56:04;;;;;;;12.80;7.03;;;19.80;79.10;;;;;;5035518;28;20099;-66
2023/09/09 01:58:29;;;;;;;8.98;6.85;;;19.80;79.50;;;;;;5036010;28;20112;-66
2023/09/09 02:00:55;;;;;;;13.75;7.15;;;19.80;80.20;;;;;;5035623;28;20037;-66
2023/09/09 02:03:21;;;;;;;13.52;7.75;;;19.80;80.30;;;;;;5036233;28;20026;-66
2023/09/09 02:05:47;;;;;;;12.52;6.72;;;19.80;80.20;;;;;;5035467;28;20458;-66
2023/09/09 02:08:13;;;;;;;11.45;6.97;;;19.80;80.50;;;;;;5035787;28;20132;-66
2023/09/09 02:10:39;;;;;;;12.75;6.80;;;19.80;80.80;;;;;;5035870;28;20029;-66
2023/09/09 02:13:05;;;;;;;9.35;6.72;;;19.70;81.20;;;;;;5035371;28;20021;-66
2023/09/09 02:15:30;;;;;;;9.10;6.28;;;19.70;81.30;;;;;;5035449;28;20022;-66
2023/09/09 02:17:57;;;;;;;12.18;6.78;;;19.70;81.50;;;;;;5035255;28;20528;-66
2023/09/09 02:20:23;;;;;;;11.60;7.07;;;19.70;82.10;;;;;;5035598;28;20025;-66
2023/09/09 02:22:48;;;;;;;13.80;7.25;;;19.60;82.00;;;;;;5035356;28;20072;-66
2023/09/09 02:25:14;;;;;;;11.23;7.22;;;19.60;82.00;;;;;;5035608;28;20032;-66
2023/09/09 02:27:40;;;;;;;15.00;7.13;;;19.60;82.50;;;;;;5035403;28;20042;-66
2023/09/09 02:30:06;;;;;;;11.07;7.18;;;19.60;82.70;;;;;;5035110;28;20030;-66
2023/09/09 02:32:32;;;;;;;12.00;7.32;;;19.60;82.80;;;;;;5035190;28;20470;-66
2023/09/09 02:34:59;;;;;;;11.05;6.80;;;19.50;83.40;;;;;;5034989;28;20032;-67
2023/09/09 02:37:26;;;;;;;13.15;7.35;;;19.50;83.80;;;;;;5035169;28;20532;-67
2023/09/09 02:39:52;;;;;;;9.75;6.97;;;19.50;83.90;;;;;;5035022;28;20022;-66
2023/09/09 02:42:23;;;;;;;12.73;8.40;;;19.50;84.20;;;;;;5035348;28;20082;-67
2023/09/09 02:44:51;;;;;;;;;;;19.50;84.50;;;;;;5017437;28;20033;-67
2023/09/09 02:47:18;;;;;;;10.90;6.90;;;19.40;84.70;;;;;;5035003;28;20342;-67
2023/09/09 02:49:44;;;;;;;8.95;7.32;;;19.40;84.90;;;;;;5047207;28;20033;-67
2023/09/09 02:52:10;;;;;;;14.32;7.70;;;19.40;85.10;;;;;;5054491;28;20488;-66
2023/09/09 02:54:37;;;;;;;10.52;7.07;;;19.30;85.20;;;;;;5054653;28;20477;-66
2023/09/09 02:57:03;;;;;;;11.40;7.22;;;19.30;85.70;;;;;;5054023;28;20055;-67
2023/09/09 02:59:32;;;;;;;8.82;6.97;;;19.20;86.20;;;;;;5054943;28;20454;-66
2023/09/09 03:01:58;;;;;;;10.73;6.93;;;19.20;86.60;;;;;;5054491;28;20450;-66
2023/09/09 03:04:24;;;;;;;17.75;7.75;;;19.20;87.00;;;;;;5054008;28;20032;-67
2023/09/09 03:06:50;;;;;;;13.88;7.78;;;19.20;87.00;;;;;;5053637;28;20032;-67
2023/09/09 03:09:15;;;;;;;15.73;7.68;;;19.10;87.20;;;;;;5035437;28;20602;-67
2023/09/09 03:11:41;;;;;;;12.50;8.48;;;19.10;87.70;;;;;;5034386;28;20099;-67
2023/09/09 03:14:08;;;;;;;12.40;7.63;;;19.00;88.00;;;;;;5034227;28;20034;-67
2023/09/09 03:16:34;;;;;;;15.85;7.97;;;19.00;88.10;;;;;;5034529;28;20038;-67
2023/09/09 03:18:59;;;;;;;10.82;7.25;;;19.00;88.50;;;;;;5034253;28;20025;-65
2023/09/09 03:21:25;;;;;;;9.98;7.10;;;18.90;88.80;;;;;;5034313;28;20443;-67
2023/09/09 03:23:51;;;;;;;12.95;7.53;;;18.90;89.20;;;;;;5033763;28;20022;-67
2023/09/09 03:26:18;;;;;;;13.68;8.07;;;18.90;88.70;;;;;;5034317;28;20375;-67
2023/09/09 03:28:47;;;;;;;13.30;8.43;;;18.90;88.90;;;;;;5034233;28;20030;-67
2023/09/09 03:31:13;;;;;;;9.15;7.28;;;18.80;89.80;;;;;;5036687;28;20021;-67
2023/09/09 03:33:40;;;;;;;12.32;7.78;;;18.80;89.80;;;;;;5034202;28;20037;-67
2023/09/09 03:36:06;;;;;;;12.52;7.47;;;18.80;89.70;;;;;;5033735;28;20148;-67
2023/09/09 03:38:32;;;;;;;11.25;7.40;;;18.80;90.00;;;;;;5034248;28;20026;-67
2023/09/09 03:40:58;;;;;;;14.30;7.60;;;18.80;89.90;;;;;;5034075;28;20032;-67
2023/09/09 03:43:23;;;;;;;13.73;8.45;;;18.80;90.00;;;;;;5034227;28;20025;-67
2023/09/09 03:45:56;;;;;;;13.68;7.93;;;18.90;90.00;;;;;;5033349;28;20030;-67
2023/09/09 03:48:21;;;;;;;10.63;7.30;;;18.80;90.00;;;;;;5033917;28;20033;-67
2023/09/09 03:50:47;;;;;;;15.48;8.45;;;18.90;90.20;;;;;;5033863;28;20029;-67
2023/09/09 03:53:13;;;;;;;12.65;8.20;;;18.80;90.40;;;;;;5033398;28;20434;-67
2023/09/09 03:55:39;;;;;;;15.60;8.07;;;18.80;90.30;;;;;;5033743;28;20049;-67
2023/09/09 03:58:04;;;;;;;11.70;7.43;;;18.80;90.40;;;;;;5033370;28;20033;-67
2023/09/09 04:00:30;;;;;;;12.43;7.70;;;18.80;90.40;;;;;;5033458;28;20029;-67
2023/09/09 04:02:55;;;;;;;13.90;8.43;;;18.80;90.60;;;;;;5033355;28;20083;-67
2023/09/09 04:05:21;;;;;;;13.80;8.43;;;18.70;90.50;;;;;;5015873;28;20071;-67
2023/09/09 04:07:47;;;;;;;12.57;7.95;;;18.70;90.60;;;;;;5033277;28;20033;-67
2023/09/09 04:10:12;;;;;;;10.50;7.35;;;18.70;90.60;;;;;;5032954;28;20033;-67
2023/09/09 04:12:38;;;;;;;10.88;7.63;;;18.60;90.80;;;;;;5033493;28;20347;-67
2023/09/09 04:15:08;;;;;;;14.65;7.25;;;18.60;90.90;;;;;;5032600;28;20517;-67
2023/09/09 04:17:34;;;;;;;12.45;7.78;;;18.60;91.00;;;;;;5032974;28;20029;-67
2023/09/09 04:19:59;;;;;;;12.30;7.32;;;18.60;91.00;;;;;;5033025;28;20029;-67
2023/09/09 04:22:26;;;;;;;14.93;7.18;;;18.70;91.00;;;;;;5033327;28;20017;-67
2023/09/09 04:24:53;;;;;;;12.45;7.43;;;18.70;91.00;;;;;;5032993;28;20026;-67
2023/09/09 04:27:20;;;;;;;12.13;7.53;;;18.70;91.00;;;;;;5033253;28;20056;-67
2023/09/09 04:29:46;;;;;;;11.40;7.60;;;18.70;91.00;;;;;;5033306;28;20036;-67
2023/09/09 04:32:12;;;;;;;12.68;8.07;;;18.70;90.80;;;;;;5032837;28;20101;-67
2023/09/09 04:34:38;;;;;;;14.15;8.15;;;18.70;90.70;;;;;;5033388;28;20347;-67
2023/09/09 04:37:04;;;;;;;13.85;8.05;;;18.70;90.80;;;;;;5033711;28;20033;-67
2023/09/09 04:39:30;;;;;;;12.77;8.15;;;18.70;90.70;;;;;;5034745;28;20029;-66
2023/09/09 04:41:55;;;;;;;12.32;7.32;;;18.70;90.80;;;;;;5034066;28;20037;-67
2023/09/09 04:44:21;;;;;;;11.85;7.22;;;18.70;90.80;;;;;;5033036;28;20071;-66
2023/09/09 04:46:47;;;;;;;15.90;7.93;;;18.70;90.70;;;;;;5032619;28;20029;-67
2023/09/09 04:49:12;;;;;;;11.70;7.47;;;18.70;90.80;;;;;;5032621;28;20040;-66
2023/09/09 04:51:38;;;;;;;19.60;8.32;;;18.70;90.70;;;;;;5035339;28;20076;-66
2023/09/09 04:54:04;;;;;;;13.50;8.18;;;18.70;90.80;;;;;;5032141;28;20075;-66
2023/09/09 04:56:30;;;;;;;12.50;7.13;;;18.70;90.70;;;;;;5032890;28;20060;-66
2023/09/09 04:58:55;;;;;;;16.38;8.32;;;18.70;90.70;;;;;;5032545;28;20446;-67
2023/09/09 05:01:21;;;;;;;13.98;8.00;;;18.80;90.50;;;;;;5032839;28;20053;-66
2023/09/09 05:03:46;;;;;;;14.35;9.13;;;18.80;90.50;;;;;;5049481;28;20100;-66
2023/09/09 05:06:12;;;;;;;14.00;8.73;;;18.80;90.70;;;;;;5052242;28;20055;-67
2023/09/09 05:08:38;;;;;;;10.32;8.30;;;18.70;90.70;;;;;;5052373;28;20064;-66
2023/09/09 05:11:04;;;;;;;14.57;8.98;;;18.80;90.70;;;;;;5052159;28;20145;-66
2023/09/09 05:13:29;;;;;;;11.40;9.00;;;18.80;90.50;;;;;;5028194;28;20462;-66
2023/09/09 05:15:55;;;;;;;11.10;8.40;;;18.80;90.60;;;;;;5040106;28;20029;-66
2023/09/09 05:18:20;;;;;;;13.63;8.60;;;18.80;90.70;;;;;;5032720;28;20030;-66
2023/09/09 05:20:46;;;;;;;14.82;8.48;;;18.80;90.30;;;;;;5034941;28;20057;-66
2023/09/09 05:23:12;;;;;;;14.73;8.63;;;18.80;90.40;;;;;;5041918;28;20437;-67
2023/09/09 05:25:37;;;;;;;12.80;9.27;;;18.80;90.50;;;;;;5020376;28;20084;-66
2023/09/09 05:28:03;;;;;;;12.95;8.65;;;18.90;90.40;;;;;;5034647;28;20037;-66
2023/09/09 05:30:29;;;;;;;11.50;8.10;;;18.90;90.30;;;;;;5036772;28;20053;-66
2023/09/09 05:32:54;;;;;;;13.00;8.43;;;18.90;90.30;;;;;;5036398;28;20105;-66
2023/09/09 05:35:20;;;;;;;13.35;8.13;;;18.90;90.20;;;;;;5035989;28;20459;-65
2023/09/09 05:37:46;;;;;;;12.02;9.27;;;18.90;90.10;;;;;;5036623;28;20030;-66
2023/09/09 05:40:12;;;;;;;15.45;9.23;;;19.00;90.10;;;;;;5041190;28;20107;-66
2023/09/09 05:42:38;;;;;;;13.82;8.35;;;19.00;90.10;;;;;;5044864;28;20425;-66
2023/09/09 05:45:05;;;;;;;11.48;8.73;;;19.00;90.00;;;;;;5047277;28;20070;-66
2023/09/09 05:47:30;;;;;;;14.45;8.52;;;19.10;89.80;;;;;;5056265;28;20500;-66
2023/09/09 05:49:56;;;;;;;16.27;9.30;;;19.10;89.60;;;;;;5039468;28;20033;-67
2023/09/09 05:52:22;;;;;;;13.05;8.63;;;19.20;89.30;;;;;;5036031;28;20368;-67
2023/09/09 05:54:47;;;;;;;10.50;7.32;;;19.20;88.90;;;;;;5036157;28;20021;-67
2023/09/09 05:57:13;;;;;;;10.98;8.50;;;19.30;88.30;;;;;;5035941;28;20363;-67
2023/09/09 05:59:38;;;;;;;11.30;8.15;;;19.30;87.30;;;;;;5036108;28;20108;-66
2023/09/09 06:02:05;;;;;;;9.75;8.20;;;19.30;87.30;;;;;;5035525;28;20115;-67
2023/09/09 06:04:31;;;;;;;12.85;8.48;;;19.40;86.70;;;;;;5036049;28;20374;-67
2023/09/09 06:06:57;;;;;;;11.23;8.32;;;19.50;86.50;;;;;;5035889;28;20084;-67
2023/09/09 06:09:22;;;;;;;10.63;8.43;;;19.50;86.30;;;;;;5038023;28;20152;-67
2023/09/09 06:11:49;;;;;;;12.27;8.35;;;19.60;85.80;;;;;;5054772;28;20473;-67
2023/09/09 06:14:15;;;;;;;12.02;8.35;;;19.70;86.00;;;;;;5055371;28;20025;-67
2023/09/09 06:16:41;;;;;;;10.85;7.82;;;19.70;85.40;;;;;;5055382;28;20474;-67
2023/09/09 06:19:06;;;;;;;10.25;7.68;;;19.80;85.20;;;;;;5042532;28;20369;-67
2023/09/09 06:21:32;;;;;;;10.95;8.55;;;19.90;84.70;;;;;;5038177;28;20021;-67
2023/09/09 06:23:58;;;;;;;12.13;7.80;;;20.00;83.70;;;;;;5043607;28;20030;-67
2023/09/09 06:26:24;;;;;;;14.00;8.57;;;20.10;82.80;;;;;;5043756;28;20458;-67
2023/09/09 06:28:50;;;;;;;15.32;8.82;;;20.10;82.80;;;;;;5044488;28;20029;-66
2023/09/09 06:31:16;;;;;;;11.55;8.43;;;20.20;82.50;;;;;;5042541;28;20056;-66
2023/09/09 06:33:41;;;;;;;12.82;8.35;;;20.30;82.30;;;;;;5045569;28;20458;-66
2023/09/09 06:36:07;;;;;;;14.07;8.70;;;20.50;82.10;;;;;;5044160;28;20462;-68
2023/09/09 06:38:33;;;;;;;13.55;8.55;;;20.70;80.90;;;;;;5040512;28;20056;-67
2023/09/09 06:40:58;;;;;;;11.63;8.70;;;20.90;80.40;;;;;;5046141;28;20438;-67
2023/09/09 06:43:24;;;;;;;12.75;7.80;;;21.20;79.90;;;;;;5042236;28;20036;-67
2023/09/09 06:45:50;;;;;;;11.20;8.25;;;21.50;77.80;;;;;;5044312;28;20382;-67
2023/09/09 06:48:17;;;;;;;14.55;10.30;;;21.80;76.20;;;;;;5039883;28;20103;-68
2023/09/09 06:50:46;;;;;;;11.45;7.93;;;22.10;75.30;;;;;;5041684;28;20118;-67
2023/09/09 06:53:12;;;;;;;12.70;7.82;;;22.40;74.30;;;;;;5021351;28;20037;-66
2023/09/09 06:55:39;;;;;;;13.55;8.35;;;22.70;72.00;;;;;;5038693;28;20061;-68
2023/09/09 06:58:04;;;;;;;8.98;7.60;;;23.00;70.80;;;;;;5039288;28;20034;-69
2023/09/09 07:00:30;;;;;;;10.43;7.25;;;23.40;70.40;;;;;;5041710;28;20036;-67
2023/09/09 07:02:56;;;;;;;14.30;7.75;;;24.00;67.60;;;;;;5038694;28;20041;-66
2023/09/09 07:05:22;;;;;;;11.73;7.40;;;24.60;66.10;;;;;;5044740;28;20036;-67
2023/09/09 07:07:47;;;;;;;10.32;7.25;;;25.30;63.50;;;;;;5044942;28;20060;-66
2023/09/09 07:10:13;;;;;;;10.25;6.70;;;25.90;60.80;;;;;;5042013;28;20018;-66
2023/09/09 07:12:39;;;;;;;11.10;7.15;;;26.50;60.00;;;;;;5040734;28;20037;-67
2023/09/09 07:15:05;;;;;;;9.27;6.80;;;27.30;57.60;;;;;;5040959;28;20017;-67
2023/09/09 07:17:30;;;;;;;8.25;6.57;;;28.00;56.10;;;;;;5039461;28;20496;-68
2023/09/09 07:19:56;;;;;;;9.63;6.35;;;28.70;54.80;;;;;;5031633;28;20033;-67
2023/09/09 07:22:22;;;;;;;9.02;5.97;;;29.60;52.30;;;;;;5042356;28;20025;-66
2023/09/09 07:24:47;;;;;;;11.45;6.47;;;30.20;50.40;;;;;;5042095;28;20022;-66
2023/09/09 07:27:13;;;;;;;7.20;6.07;;;30.60;49.10;;;;;;5049029;28;20033;-68
2023/09/09 07:29:39;;;;;;;8.35;6.80;;;31.30;47.60;;;;;;5036509;28;20111;-68
2023/09/09 07:32:04;;;;;;;7.70;6.35;;;31.70;47.30;;;;;;5040582;28;20037;-67
2023/09/09 07:34:30;;;;;;;7.88;6.20;;;32.20;45.80;;;;;;5041931;28;20384;-67
2023/09/09 07:36:56;;;;;;;13.93;6.30;;;32.70;45.20;;;;;;5040330;28;20033;-67
2023/09/09 07:39:21;;;;;;;15.60;6.70;;;33.30;44.10;;;;;;5040231;28;20025;-67
2023/09/09 07:41:47;;;;;;;12.35;7.05;;;33.70;43.30;;;;;;5042320;28;20481;-67
2023/09/09 07:44:13;;;;;;;10.50;7.10;;;34.30;42.10;;;;;;5039616;28;20025;-67
2023/09/09 07:46:38;;;;;;;9.85;6.45;;;34.60;41.60;;;;;;5042839;28;20037;-67
2023/09/09 07:49:04;;;;;;;8.50;6.28;;;34.70;40.70;;;;;;5042998;28;20025;-67
2023/09/09 07:51:29;;;;;;;10.75;7.30;;;34.90;40.70;;;;;;5040769;28;20100;-67
2023/09/09 07:53:55;;;;;;;9.13;6.95;;;35.50;40.20;;;;;;5043301;28;20417;-67
2023/09/09 07:56:21;;;;;;;9.32;7.32;;;35.50;39.20;;;;;;5043046;28;20124;-65
2023/09/09 07:58:46;;;;;;;9.10;6.43;;;35.90;39.10;;;;;;5043059;28;20025;-66
2023/09/09 08:01:13;;;;;;;8.77;7.85;;;36.40;38.60;;;;;;5043739;28;20029;-67
2023/09/09 08:03:38;;;;;;;10.02;7.60;;;36.40;37.80;;;;;;5043152;28;20025;-67
2023/09/09 08:06:06;;;;;;;11.85;7.00;;;36.70;38.10;;;;;;5041661;28;20032;-67
2023/09/09 08:08:35;;;;;;;15.23;7.22;;;36.90;37.40;;;;;;5041197;28;20025;-66
2023/09/09 08:11:02;;;;;;;15.43;7.35;;;37.00;37.20;;;;;;5040264;28;20383;-66
2023/09/09 08:13:28;;;;;;;10.80;7.55;;;37.30;37.10;;;;;;5044113;28;20117;-66
2023/09/09 08:15:54;;;;;;;9.48;7.40;;;37.50;36.80;;;;;;5041796;28;20045;-66
2023/09/09 08:18:19;;;;;;;11.23;7.13;;;37.50;36.70;;;;;;5043764;28;20036;-67
2023/09/09 08:20:50;;;;;;;9.73;7.20;;;37.70;36.90;;;;;;5050630;28;20078;-67
2023/09/09 08:23:16;;;;;;;10.82;6.38;;;37.60;36.20;;;;;;5035960;28;20029;-69
2023/09/09 08:25:41;;;;;;;7.30;5.80;;;37.00;36.60;;;;;;5047212;28;20017;-67
2023/09/09 08:28:07;;;;;;;12.45;6.20;;;36.80;36.90;;;;;;5021334;28;20056;-67
2023/09/09 08:30:32;;;;;;;11.02;6.03;;;36.90;37.00;;;;;;5024575;28;20154;-67
2023/09/09 08:32:58;;;;;;;7.22;5.35;;;36.70;37.00;;;;;;5043158;28;20084;-68
2023/09/09 08:35:24;;;;;;;6.78;5.28;;;36.60;36.90;;;;;;5039698;28;20100;-68
2023/09/09 08:37:50;;;;;;;8.57;5.43;;;36.00;37.20;;;;;;5038850;28;20048;-68
2023/09/09 08:40:16;;;;;;;7.65;5.30;;;35.00;38.50;;;;;;5040933;28;20469;-68
2023/09/09 08:43:32;;;;;;;6.63;5.05;;;34.10;40.00;;;;;;5038035;28;20035;-68
2023/09/09 08:46:12;;;;;;;7.47;4.80;;;33.60;40.70;;;;;;4939116;29;20114;-67
2023/09/09 08:48:40;;;;;;;8.93;4.82;;;33.40;42.00;;;;;;5027193;28;20045;-67
2023/09/09 08:51:08;;;;;;;6.70;4.72;;;32.90;42.20;;;;;;5042738;28;20104;-67
2023/09/09 08:53:35;;;;;;;6.57;5.22;;;32.50;42.40;;;;;;5049229;28;20025;-68
2023/09/09 08:56:01;;;;;;;14.93;5.05;;;32.30;42.50;;;;;;5035152;28;20502;-67
2023/09/09 08:58:28;;;;;;;9.85;5.18;;;31.90;42.70;;;;;;5040370;28;20059;-69
2023/09/09 09:00:54;;;;;;;8.57;4.60;;;31.80;44.00;;;;;;5042108;28;20115;-67
2023/09/09 09:03:20;;;;;;;9.43;4.80;;;31.80;43.00;;;;;;5026363;28;20037;-68
2023/09/09 09:05:47;;;;;;;7.90;4.93;;;31.80;42.80;;;;;;5035883;28;20044;-67
2023/09/09 09:08:12;;;;;;;8.15;4.72;;;31.50;43.70;;;;;;5045957;28;20084;-67
2023/09/09 09:10:40;;;;;;;7.00;4.57;;;31.20;43.90;;;;;;5033687;28;20033;-70
2023/09/09 09:13:06;;;;;;;8.10;4.50;;;31.30;43.60;;;;;;5032375;28;20034;-67
2023/09/09 09:15:32;;;;;;;8.35;4.68;;;31.30;43.70;;;;;;5039558;28;20045;-70
2023/09/09 09:18:01;;;;;;;11.45;4.63;;;31.30;43.40;;;;;;5041337;28;20400;-69
2023/09/09 09:20:32;;;;;;;8.32;4.90;;;31.30;43.60;;;;;;5051954;28;20090;-68
2023/09/09 09:23:03;;;;;;;4.38;3.30;;;31.40;43.90;;;;;;5049365;28;20021;-68
2023/09/09 09:25:42;;;;;;;12.18;3.70;;;31.30;42.60;;;;;;5031520;28;20378;-67
2023/09/09 09:28:08;;;;;;;5.30;3.83;;;31.30;42.10;;;;;;5033197;28;20068;-67
2023/09/09 09:30:34;;;;;;;6.38;3.50;;;31.30;42.90;;;;;;5048003;28;20140;-65
2023/09/09 09:33:00;;;;;;;7.85;3.92;;;31.30;42.30;;;;;;5041460;28;20029;-66
2023/09/09 09:35:34;;;;;;;5.03;3.42;;;31.00;41.70;;;;;;5051927;28;20052;-66
2023/09/09 09:38:13;;;;;;;4.97;3.50;;;31.00;42.20;;;;;;5052225;28;20060;-66
2023/09/09 09:40:40;;;;;;;6.33;3.37;;;31.00;41.90;;;;;;5052233;28;20021;-65
2023/09/09 09:43:19;;;;;;;8.05;3.55;;;31.10;41.40;;;;;;5034657;28;20025;-67
2023/09/09 09:45:45;;;;;;;5.05;3.80;;;31.10;41.60;;;;;;5052584;28;20444;-66
2023/09/09 09:48:23;;;;;;;5.70;3.38;;;31.00;41.60;;;;;;5030625;28;20112;-70
2023/09/09 09:50:52;;;;;;;6.45;3.15;;;31.00;42.30;;;;;;5051996;28;20497;-65
2023/09/09 09:53:17;;;;;;;8.13;3.50;;;31.00;41.70;;;;;;5051398;28;20089;-67
2023/09/09 09:55:44;;;;;;;7.63;3.95;;;31.00;41.70;;;;;;5043204;28;20510;-67
2023/09/09 09:58:13;;;;;;;5.38;3.80;;;31.00;42.10;;;;;;5032068;28;20087;-67
2023/09/09 10:00:39;;;;;;;7.63;3.90;;;31.10;42.00;;;;;;5031530;28;20080;-67
2023/09/09 10:03:08;;;;;;;8.48;3.60;;;31.00;42.00;;;;;;5032154;28;20060;-67
2023/09/09 10:05:35;;;;;;;7.05;3.63;;;31.00;41.80;;;;;;5031994;28;20103;-67
2023/09/09 10:08:28;;;;;;;7.68;3.78;;;31.10;42.10;;;;;;5032074;28;20506;-67
2023/09/09 10:11:03;;;;;;;7.40;3.70;;;31.00;41.20;;;;;;5032013;28;20466;-66
2023/09/09 10:13:42;;;;;;;9.57;4.15;;;31.00;42.60;;;;;;5033053;28;20030;-66
2023/09/09 10:16:09;;;;;;;5.43;3.70;;;30.90;41.60;;;;;;5036158;28;20458;-66
2023/09/09 10:18:37;;;;;;;9.95;4.80;;;30.90;42.00;;;;;;5035162;28;20070;-67
2023/09/09 10:21:06;;;;;;;6.18;3.97;;;31.00;42.10;;;;;;5035791;28;20045;-66
2023/09/09 10:23:32;;;;;;;4.15;3.40;;;31.20;41.90;;;;;;5034861;28;20489;-67
2023/09/09 10:25:59;;;;;;;7.70;3.40;;;31.20;39.90;;;;;;5035233;28;20034;-66
2023/09/09 10:28:26;;;;;;;6.38;3.63;;;31.20;39.50;;;;;;5034949;28;20037;-67
2023/09/09 10:30:53;;;;;;;5.88;3.50;;;31.20;39.80;;;;;;5035270;28;20124;-66
2023/09/09 10:33:20;;;;;;;6.25;3.25;;;31.20;39.40;;;;;;5034856;28;20028;-66
2023/09/09 10:35:50;;;;;;;5.75;3.50;;;31.20;40.00;;;;;;5035293;28;20025;-67
2023/09/09 10:38:17;;;;;;;4.87;3.30;;;31.30;40.80;;;;;;5034954;28;20036;-72
2023/09/09 10:40:46;;;;;;;6.53;3.22;;;31.30;40.50;;;;;;5034848;28;20025;-66
2023/09/09 10:43:12;;;;;;;4.40;3.75;;;31.30;39.70;;;;;;5034711;28;20363;-66
2023/09/09 10:45:43;;;;;;;5.85;3.55;;;31.20;39.00;;;;;;5035678;28;20370;-67
2023/09/09 10:48:12;;;;;;;9.15;3.72;;;31.10;39.10;;;;;;5035205;28;20074;-67
2023/09/09 10:50:44;;;;;;;4.38;3.60;;;31.00;39.40;;;;;;5034126;28;20475;-67
2023/09/09 10:53:22;;;;;;;8.05;3.78;;;31.00;39.20;;;;;;5041810;28;20029;-68
2023/09/09 10:56:00;;;;;;;6.15;4.55;;;31.00;39.80;;;;;;5034466;28;20061;-67
2023/09/09 10:58:34;;;;;;;7.00;4.28;;;31.00;40.20;;;;;;5034361;28;20041;-67
2023/09/09 11:01:00;;;;;;;10.10;4.97;;;30.90;39.60;;;;;;5034984;28;20034;-67
2023/09/09 11:03:36;;;;;;;5.80;3.90;;;30.80;39.80;;;;;;5035445;28;20021;-66
2023/09/09 11:06:07;;;;;;;6.43;3.22;;;30.80;40.50;;;;;;5027344;28;20067;-66
2023/09/09 11:08:47;;;;;;;8.57;3.30;;;30.80;40.80;;;;;;5024004;28;20034;-69
2023/09/09 11:11:14;;;;;;;;;;;30.80;40.10;;;;;;5043422;28;20072;-68
2023/09/09 11:14:06;;;;;;;4.70;3.75;;;30.80;40.70;;;;;;5045309;28;19960;-68
2023/09/09 11:16:32;;;;;;;7.18;3.13;;;30.90;40.10;;;;;;5041541;28;20441;-67
2023/09/09 11:19:06;;;;;;;6.13;3.88;;;31.00;40.60;;;;;;5042461;28;20084;-67
2023/09/09 11:21:34;;;;;;;5.90;3.33;;;31.00;39.70;;;;;;5042656;28;20424;-67
2023/09/09 11:24:01;;;;;;;4.60;3.55;;;31.00;39.80;;;;;;5045225;28;20036;-66
2023/09/09 11:26:28;;;;;;;4.63;3.38;;;31.10;40.00;;;;;;5040853;28;20013;-68
2023/09/09 11:28:54;;;;;;;5.07;3.50;;;31.10;39.50;;;;;;5044827;28;20026;-66
2023/09/09 11:31:20;;;;;;;4.28;3.58;;;31.10;38.90;;;;;;5033094;28;20104;-70
2023/09/09 11:33:45;;;;;;;5.57;3.17;;;31.20;39.20;;;;;;5054172;28;20028;-66
2023/09/09 11:36:16;;;;;;;4.05;3.17;;;31.20;39.30;;;;;;5054076;28;20133;-67
2023/09/09 11:38:42;;;;;;;;;;;31.20;39.80;;;;;;5053812;28;20067;-67
2023/09/09 11:41:08;;;;;;;6.63;3.55;;;31.20;38.90;;;;;;5054023;28;19931;-69
2023/09/09 11:43:33;;;;;;;9.68;3.70;;;31.10;39.40;;;;;;5053223;28;20021;-69
2023/09/09 11:46:00;;;;;;;7.28;3.63;;;31.10;39.30;;;;;;5044391;28;20025;-68
2023/09/09 11:48:26;;;;;;;6.90;3.47;;;31.10;39.70;;;;;;5007156;28;20124;-67
2023/09/09 11:50:52;;;;;;;5.50;3.25;;;31.10;39.50;;;;;;5016299;28;20076;-67
2023/09/09 11:53:22;;;;;;;4.63;3.17;;;31.00;39.70;;;;;;5016233;28;20053;-68
2023/09/09 11:55:53;;;;;;;5.97;3.40;;;30.90;39.70;;;;;;5033736;28;20120;-66
2023/09/09 11:58:19;;;;;;;7.45;3.20;;;30.90;39.70;;;;;;5033436;28;20478;-67
2023/09/09 12:00:44;;;;;;;6.90;3.72;;;30.80;39.90;;;;;;5033776;28;20087;-67
2023/09/09 12:03:18;;;;;;;5.32;3.40;;;30.80;39.90;;;;;;5033714;28;20029;-67
2023/09/09 12:05:44;;;;;;;4.80;3.47;;;30.80;39.80;;;;;;5033364;28;20021;-68
2023/09/09 12:08:10;;;;;;;6.13;3.70;;;30.90;40.20;;;;;;5033593;28;20036;-67
2023/09/09 12:10:37;;;;;;;7.70;3.70;;;30.90;40.60;;;;;;5033129;28;20033;-67
2023/09/09 12:13:04;;;;;;;4.05;3.17;;;30.90;40.90;;;;;;5036241;28;20060;-69
2023/09/09 12:15:30;;;;;;;6.25;3.50;;;30.90;40.40;;;;;;5048016;28;20033;-69
2023/09/09 12:17:56;;;;;;;7.95;3.58;;;30.80;40.60;;;;;;5053109;28;20074;-70
2023/09/09 12:20:22;;;;;;;11.85;3.72;;;30.70;40.70;;;;;;5052972;28;20024;-69
2023/09/09 12:22:50;;;;;;;8.27;3.55;;;30.60;40.30;;;;;;5053329;28;20033;-71
2023/09/09 12:25:35;;;;;;;4.38;3.50;;;30.50;41.20;;;;;;5053403;28;20288;-69
2023/09/09 12:28:02;;;;;;;11.70;3.83;;;30.30;41.90;;;;;;5053294;28;20048;-70
2023/09/09 12:30:37;;;;;;;13.10;3.72;;;30.20;42.30;;;;;;5052689;28;20044;-69
2023/09/09 12:33:13;;;;;;;4.28;3.60;;;30.00;41.90;;;;;;5053173;28;20021;-68
2023/09/09 12:35:46;;;;;;;10.23;4.30;;;29.90;42.40;;;;;;5053018;28;20067;-68
2023/09/09 12:38:14;;;;;;;9.38;4.00;;;29.80;42.60;;;;;;5052392;28;20112;-72
2023/09/09 12:40:53;;;;;;;4.60;3.47;;;29.70;42.50;;;;;;5025815;28;20769;-69
2023/09/09 12:43:26;;;;;;;7.05;3.53;;;29.70;42.70;;;;;;5041817;28;20029;-67